Time;durP1;ratioP1;P1;durP2;ratioP2;P2;SDS_P1;SDS_P2;PMS_P1;PMS_P2;Temp;Humidity;BMP_temperature;BMP_pressure;BME280_temperature;BME280_humidity;BME280_pressure;Samples;Min_cycle;Max_cycle;Signal;HPM_P1;HPM_P2
2022/09/13 00:01:53;;;;;;;20.17;10.38;;;18.20;99.90;;;;;;4149115;28;20116;-81
2022/09/13 00:03:54;;;;;;;22.77;10.02;;;18.20;99.90;;;;;;4148796;28;20042;-81
2022/09/13 00:05:55;;;;;;;18.45;10.88;;;18.20;99.90;;;;;;4148397;28;20052;-81
2022/09/13 00:07:56;;;;;;;19.33;10.77;;;18.20;99.90;;;;;;4131031;28;20105;-81
2022/09/13 00:09:57;;;;;;;18.02;10.55;;;18.20;99.90;;;;;;4148851;28;20500;-82
2022/09/13 00:11:57;;;;;;;18.80;10.48;;;18.20;99.90;;;;;;4148605;28;20061;-81
2022/09/13 00:13:58;;;;;;;18.10;10.98;;;18.20;99.90;;;;;;4148551;28;20098;-81
2022/09/13 00:16:02;;;;;;;18.85;9.95;;;18.20;99.90;;;;;;4148668;28;20111;-81
2022/09/13 00:18:03;;;;;;;17.70;9.65;;;18.20;99.90;;;;;;4147813;28;20082;-81
2022/09/13 00:20:04;;;;;;;15.88;9.05;;;18.10;99.90;;;;;;4148264;28;20045;-81
2022/09/13 00:22:05;;;;;;;15.00;7.97;;;18.10;99.90;;;;;;4147953;28;20488;-81
2022/09/13 00:24:07;;;;;;;13.65;8.30;;;18.10;99.90;;;;;;4130555;28;20057;-81
2022/09/13 00:26:13;;;;;;;14.43;8.10;;;18.00;99.90;;;;;;4147759;28;20476;-81
2022/09/13 00:28:14;;;;;;;17.30;9.02;;;18.00;99.90;;;;;;4130458;28;20492;-81
2022/09/13 00:30:15;;;;;;;16.80;8.82;;;18.00;99.90;;;;;;4147537;28;20092;-81
2022/09/13 00:32:15;;;;;;;15.88;8.90;;;18.00;99.90;;;;;;4147730;28;20052;-81
2022/09/13 00:34:16;;;;;;;15.00;8.40;;;18.00;99.90;;;;;;4147270;28;20135;-82
2022/09/13 00:36:17;;;;;;;14.82;8.20;;;18.00;99.90;;;;;;4130269;28;20077;-81
2022/09/13 00:38:17;;;;;;;15.20;8.85;;;18.00;99.90;;;;;;4147459;28;20099;-81
2022/09/13 00:40:20;;;;;;;17.65;9.13;;;17.90;99.90;;;;;;4129687;28;20046;-81
2022/09/13 00:42:25;;;;;;;16.77;8.57;;;17.90;99.90;;;;;;4129810;28;20129;-82
2022/09/13 00:44:59;;;;;;;16.08;9.05;;;17.90;99.90;;;;;;4146708;28;20046;-82
2022/09/13 00:47:00;;;;;;;15.02;8.95;;;17.90;99.90;;;;;;4147079;28;20088;-81
2022/09/13 00:49:12;;;;;;;14.77;8.88;;;17.80;99.90;;;;;;4128917;28;20046;-81
2022/09/13 00:51:14;;;;;;;16.48;9.20;;;17.80;99.90;;;;;;4147037;28;20050;-81
2022/09/13 00:53:17;;;;;;;13.98;8.20;;;17.80;99.90;;;;;;4146906;28;20046;-81
2022/09/13 00:55:26;;;;;;;15.45;9.00;;;17.80;99.90;;;;;;4146865;28;20053;-81
2022/09/13 00:57:29;;;;;;;14.57;8.98;;;17.80;99.90;;;;;;4146824;28;20077;-81
2022/09/13 01:00:11;;;;;;;15.98;8.90;;;17.80;99.90;;;;;;4149644;28;20078;-81
2022/09/13 01:02:13;;;;;;;16.83;9.55;;;17.80;99.90;;;;;;4152221;28;20135;-81
2022/09/13 01:04:16;;;;;;;19.60;9.90;;;17.70;99.90;;;;;;4152021;28;20149;-81
2022/09/13 01:06:21;;;;;;;18.02;9.88;;;17.80;99.90;;;;;;4152146;28;20062;-81
2022/09/13 01:08:22;;;;;;;17.95;10.63;;;17.70;99.90;;;;;;4152453;28;20550;-81
2022/09/13 01:10:23;;;;;;;22.08;11.10;;;17.70;99.90;;;;;;4152498;28;20041;-81
2022/09/13 01:12:45;;;;;;;20.27;11.02;;;17.70;99.90;;;;;;4151736;28;20433;-81
2022/09/13 01:14:46;;;;;;;22.90;11.50;;;17.70;99.90;;;;;;4138696;28;20053;-81
2022/09/13 01:16:47;;;;;;;19.13;10.77;;;17.70;99.90;;;;;;4152407;28;20042;-81
2022/09/13 01:18:48;;;;;;;22.88;11.38;;;17.70;99.90;;;;;;4152030;28;20046;-80
2022/09/13 01:21:07;;;;;;;21.70;12.10;;;17.70;99.90;;;;;;4152192;28;20557;-80
2022/09/13 01:23:22;;;;;;;21.83;11.07;;;17.70;99.90;;;;;;4152234;28;20100;-80
2022/09/13 01:25:54;;;;;;;20.98;10.60;;;17.70;99.90;;;;;;4152072;28;20128;-81
2022/09/13 01:28:19;;;;;;;16.40;8.77;;;17.70;99.90;;;;;;4151509;28;20057;-81
2022/09/13 01:30:22;;;;;;;17.95;9.32;;;17.60;99.90;;;;;;4152192;28;20568;-81
2022/09/13 01:32:51;;;;;;;19.50;9.27;;;17.60;99.90;;;;;;4135024;28;20381;-81
2022/09/13 01:35:15;;;;;;;18.15;9.13;;;17.60;99.90;;;;;;4152285;28;20050;-81
2022/09/13 01:37:42;;;;;;;16.70;8.48;;;17.60;99.90;;;;;;4152064;28;20081;-81
2022/09/13 01:39:59;;;;;;;16.00;8.55;;;17.60;99.90;;;;;;4152221;28;20500;-81
2022/09/13 01:42:02;;;;;;;15.35;7.55;;;17.60;99.90;;;;;;4151640;28;20046;-80
2022/09/13 01:44:31;;;;;;;14.55;7.53;;;17.60;99.90;;;;;;4152079;28;20046;-81
2022/09/13 01:46:43;;;;;;;10.90;7.32;;;17.60;99.90;;;;;;4152525;28;20056;-80
2022/09/13 01:49:15;;;;;;;11.52;6.68;;;17.60;99.90;;;;;;4152882;28;20099;-81
2022/09/13 01:51:31;;;;;;;11.57;6.53;;;17.70;99.90;;;;;;4152666;28;20083;-81
2022/09/13 01:53:40;;;;;;;10.48;6.22;;;17.60;99.90;;;;;;4134992;28;20054;-80
2022/09/13 01:56:00;;;;;;;10.85;6.60;;;17.60;99.90;;;;;;4152277;28;20081;-81
2022/09/13 01:58:36;;;;;;;10.88;6.63;;;17.70;99.90;;;;;;4152474;28;20061;-80
2022/09/13 02:01:03;;;;;;;13.18;7.20;;;17.60;99.90;;;;;;4152373;28;20064;-80
2022/09/13 02:03:10;;;;;;;12.82;6.75;;;17.60;99.90;;;;;;4151825;28;20053;-81
2022/09/13 02:05:30;;;;;;;10.45;6.35;;;17.60;99.90;;;;;;4152505;28;20049;-81
2022/09/13 02:07:35;;;;;;;10.82;6.65;;;17.70;99.90;;;;;;4152157;28;20046;-80
2022/09/13 02:09:40;;;;;;;11.85;7.15;;;17.60;99.90;;;;;;4152557;28;20479;-81
2022/09/13 02:11:46;;;;;;;12.95;6.60;;;17.70;99.90;;;;;;4148738;28;20060;-81
2022/09/13 02:14:02;;;;;;;13.13;7.35;;;17.60;99.90;;;;;;4149629;28;20042;-81
2022/09/13 02:16:11;;;;;;;10.63;6.88;;;17.70;99.90;;;;;;4149848;28;20446;-80
2022/09/13 02:18:18;;;;;;;10.80;7.07;;;17.70;99.90;;;;;;4149670;28;20129;-80
2022/09/13 02:20:28;;;;;;;11.60;7.28;;;17.70;99.90;;;;;;4149825;28;20046;-81
2022/09/13 02:22:45;;;;;;;14.18;6.90;;;17.70;99.90;;;;;;4149448;28;20523;-81
2022/09/13 02:24:50;;;;;;;12.32;7.35;;;17.70;99.90;;;;;;4149781;28;20050;-81
2022/09/13 02:26:54;;;;;;;12.07;7.13;;;17.70;99.90;;;;;;4132506;28;20086;-81
2022/09/13 02:28:59;;;;;;;12.52;7.72;;;17.60;99.90;;;;;;4149825;28;20403;-81
2022/09/13 02:31:03;;;;;;;12.65;7.57;;;17.70;99.90;;;;;;4149257;28;20511;-81
2022/09/13 02:33:10;;;;;;;13.05;8.02;;;17.70;99.90;;;;;;4149396;28;20046;-81
2022/09/13 02:35:23;;;;;;;12.48;7.20;;;17.70;99.90;;;;;;4149695;28;20052;-81
2022/09/13 02:37:26;;;;;;;14.52;7.50;;;17.70;99.90;;;;;;4149361;28;20049;-81
2022/09/13 02:39:31;;;;;;;13.00;7.82;;;17.70;99.90;;;;;;4132067;28;20077;-81
2022/09/13 02:41:48;;;;;;;13.95;7.65;;;17.70;99.90;;;;;;4149257;28;20085;-81
2022/09/13 02:44:00;;;;;;;15.48;7.40;;;17.70;99.90;;;;;;4149464;28;20373;-81
2022/09/13 02:46:21;;;;;;;14.15;6.72;;;17.70;99.90;;;;;;4148990;28;20097;-81
2022/09/13 02:48:46;;;;;;;13.73;7.80;;;17.70;99.90;;;;;;4149494;28;20042;-81
2022/09/13 02:51:07;;;;;;;10.75;7.20;;;17.70;99.90;;;;;;4149391;28;20546;-81
2022/09/13 02:53:24;;;;;;;13.68;8.05;;;17.80;99.90;;;;;;4149317;28;20527;-81
2022/09/13 02:55:36;;;;;;;14.68;7.93;;;17.80;99.90;;;;;;4149480;28;20554;-81
2022/09/13 02:58:00;;;;;;;15.07;7.68;;;17.80;99.90;;;;;;4148867;28;20060;-81
2022/09/13 03:00:01;;;;;;;15.98;8.70;;;17.80;99.90;;;;;;4148790;28;20488;-81
2022/09/13 03:02:09;;;;;;;13.32;7.18;;;17.80;99.90;;;;;;4149105;28;20049;-82
2022/09/13 03:04:10;;;;;;;11.25;7.35;;;17.80;99.90;;;;;;4149361;28;20069;-82
2022/09/13 03:06:11;;;;;;;9.60;5.72;;;17.80;99.90;;;;;;4132115;28;20042;-82
2022/09/13 03:08:15;;;;;;;8.95;4.75;;;17.80;99.90;;;;;;4149495;28;20072;-82
2022/09/13 03:10:17;;;;;;;4.82;2.40;;;17.80;99.90;;;;;;4148742;28;20056;-82
2022/09/13 03:12:32;;;;;;;4.35;1.90;;;17.80;99.90;;;;;;4149498;28;20049;-82
2022/09/13 03:15:01;;;;;;;3.67;1.83;;;17.80;99.90;;;;;;4149391;28;20045;-82
2022/09/13 03:17:20;;;;;;;6.43;1.70;;;17.70;99.90;;;;;;4149353;28;20052;-82
2022/09/13 03:19:49;;;;;;;3.03;1.75;;;17.60;99.90;;;;;;4148903;28;20057;-82
2022/09/13 03:22:07;;;;;;;6.32;1.45;;;17.60;99.90;;;;;;4148571;28;20112;-82
2022/09/13 03:24:17;;;;;;;2.80;1.38;;;17.60;99.90;;;;;;4148039;28;20041;-82
2022/09/13 03:26:29;;;;;;;4.22;1.73;;;17.50;99.90;;;;;;4148359;28;20049;-82
2022/09/13 03:28:51;;;;;;;3.28;1.13;;;17.50;99.90;;;;;;4148115;28;20057;-82
2022/09/13 03:31:08;;;;;;;2.42;1.23;;;17.50;99.90;;;;;;4148220;28;20492;-82
2022/09/13 03:33:21;;;;;;;2.17;0.95;;;17.50;99.90;;;;;;4148026;28;20573;-81
2022/09/13 03:35:33;;;;;;;5.05;1.33;;;17.50;99.90;;;;;;4148122;28;20092;-81
2022/09/13 03:37:55;;;;;;;1.52;0.90;;;17.50;99.90;;;;;;4147612;28;20100;-81
2022/09/13 03:40:11;;;;;;;2.40;0.90;;;17.60;99.90;;;;;;4148106;28;20081;-81
2022/09/13 03:42:21;;;;;;;1.58;1.08;;;17.60;99.90;;;;;;4148245;28;20049;-82
2022/09/13 03:44:25;;;;;;;4.38;1.00;;;17.60;99.90;;;;;;4148455;28;20125;-82
2022/09/13 03:46:37;;;;;;;1.38;0.70;;;17.60;99.90;;;;;;4148168;28;20038;-82
2022/09/13 03:48:41;;;;;;;2.97;1.00;;;17.50;99.90;;;;;;4148152;28;20068;-82
2022/09/13 03:50:45;;;;;;;1.08;0.90;;;17.50;99.90;;;;;;4147965;28;20416;-82
2022/09/13 03:52:59;;;;;;;2.55;0.70;;;17.50;99.90;;;;;;4148197;28;20042;-81
2022/09/13 03:55:01;;;;;;;2.03;1.00;;;17.50;99.90;;;;;;4148117;28;20054;-82
2022/09/13 03:57:20;;;;;;;4.47;1.00;;;17.50;99.90;;;;;;4148313;28;20050;-82
2022/09/13 03:59:21;;;;;;;2.42;1.02;;;17.50;99.90;;;;;;4148174;28;20049;-81
2022/09/13 04:01:23;;;;;;;2.30;0.82;;;17.50;99.90;;;;;;4148091;28;20077;-81
2022/09/13 04:03:24;;;;;;;2.28;0.95;;;17.50;99.90;;;;;;4130967;28;20061;-81
2022/09/13 04:05:25;;;;;;;2.08;1.10;;;17.50;99.90;;;;;;4147764;28;20042;-81
2022/09/13 04:07:26;;;;;;;3.58;1.08;;;17.50;99.90;;;;;;4148241;28;20041;-82
2022/09/13 04:09:27;;;;;;;3.00;1.20;;;17.50;99.90;;;;;;4148427;28;20527;-82
2022/09/13 04:11:30;;;;;;;2.65;1.15;;;17.50;99.90;;;;;;4148303;28;20128;-81
2022/09/13 04:13:31;;;;;;;1.73;0.77;;;17.50;99.90;;;;;;4147817;28;20056;-81
2022/09/13 04:15:33;;;;;;;3.63;0.90;;;17.50;99.90;;;;;;4147232;28;20073;-82
2022/09/13 04:17:35;;;;;;;3.40;0.80;;;17.50;99.90;;;;;;4147493;28;20053;-81
2022/09/13 04:19:35;;;;;;;2.05;0.77;;;17.50;99.90;;;;;;4130615;28;20108;-81
2022/09/13 04:21:37;;;;;;;3.72;0.77;;;17.40;99.90;;;;;;4147805;28;20260;-81
2022/09/13 04:23:37;;;;;;;1.42;0.70;;;17.40;99.90;;;;;;4147780;28;20046;-81
2022/09/13 04:25:39;;;;;;;1.30;0.70;;;17.40;99.90;;;;;;4147559;28;20542;-81
2022/09/13 04:27:40;;;;;;;3.90;0.80;;;17.40;99.90;;;;;;4147867;28;20075;-81
2022/09/13 04:29:40;;;;;;;4.00;0.98;;;17.40;99.90;;;;;;4147682;28;20104;-81
2022/09/13 04:31:41;;;;;;;3.75;0.63;;;17.40;99.90;;;;;;4130250;28;20515;-81
2022/09/13 04:33:42;;;;;;;2.35;0.70;;;17.40;99.90;;;;;;4146982;28;20045;-81
2022/09/13 04:35:42;;;;;;;2.30;0.70;;;17.40;99.90;;;;;;4147234;28;20194;-81
2022/09/13 04:37:43;;;;;;;1.30;0.50;;;17.40;99.90;;;;;;4147514;28;20410;-81
2022/09/13 04:39:44;;;;;;;2.78;1.13;;;17.40;99.90;;;;;;4147864;28;20042;-82
2022/09/13 04:41:47;;;;;;;1.15;0.47;;;17.30;99.90;;;;;;4147817;28;20046;-82
2022/09/13 04:43:50;;;;;;;2.53;0.40;;;17.40;99.90;;;;;;4147796;28;20042;-82
2022/09/13 04:45:51;;;;;;;6.35;0.93;;;17.30;99.90;;;;;;4146793;28;20102;-81
2022/09/13 04:47:53;;;;;;;3.00;0.50;;;17.30;99.90;;;;;;4130386;28;20096;-81
2022/09/13 04:49:54;;;;;;;4.20;1.40;;;17.30;99.90;;;;;;4147630;28;20058;-81
2022/09/13 04:51:54;;;;;;;2.47;0.60;;;17.30;99.90;;;;;;4146773;28;20054;-81
2022/09/13 04:53:56;;;;;;;2.17;0.70;;;17.30;99.90;;;;;;4137928;28;20117;-81
2022/09/13 04:56:00;;;;;;;1.50;0.63;;;17.30;99.90;;;;;;4147864;28;20045;-81
2022/09/13 04:58:02;;;;;;;2.78;0.80;;;17.30;99.90;;;;;;4148124;28;20460;-81
2022/09/13 05:00:04;;;;;;;4.78;0.75;;;17.30;99.90;;;;;;4148062;28;20038;-81
2022/09/13 05:02:05;;;;;;;2.53;0.85;;;17.30;99.90;;;;;;4147737;28;20408;-81
2022/09/13 05:04:07;;;;;;;2.35;0.68;;;17.30;99.90;;;;;;4130298;28;20038;-81
2022/09/13 05:06:10;;;;;;;1.65;0.80;;;17.30;99.90;;;;;;4147413;28;20403;-81
2022/09/13 05:08:10;;;;;;;5.15;1.05;;;17.30;99.90;;;;;;4147334;28;20096;-81
2022/09/13 05:10:11;;;;;;;2.60;0.80;;;17.30;99.90;;;;;;4147005;28;20439;-81
2022/09/13 05:12:12;;;;;;;3.53;0.93;;;17.30;99.90;;;;;;4147269;28;20610;-81
2022/09/13 05:14:12;;;;;;;4.00;0.85;;;17.20;99.90;;;;;;4147043;28;20407;-81
2022/09/13 05:16:13;;;;;;;6.53;1.45;;;17.30;99.90;;;;;;4146883;28;20496;-81
2022/09/13 05:18:14;;;;;;;3.50;1.80;;;17.30;99.90;;;;;;4147302;28;20096;-81
2022/09/13 05:20:15;;;;;;;3.10;1.00;;;17.30;99.90;;;;;;4147263;28;20049;-82
2022/09/13 05:22:15;;;;;;;4.97;1.10;;;17.30;99.90;;;;;;4146980;28;20038;-82
2022/09/13 05:24:16;;;;;;;2.00;0.85;;;17.30;99.90;;;;;;4147236;28;20176;-82
2022/09/13 05:26:17;;;;;;;6.65;1.10;;;17.30;99.90;;;;;;4146249;28;20057;-82
2022/09/13 05:28:18;;;;;;;2.70;1.17;;;17.30;99.90;;;;;;4147118;28;20050;-82
2022/09/13 05:30:19;;;;;;;4.55;1.45;;;17.30;99.90;;;;;;4129923;28;20097;-82
2022/09/13 05:32:20;;;;;;;3.45;1.30;;;17.30;99.90;;;;;;4146542;28;20038;-82
2022/09/13 05:34:21;;;;;;;3.67;1.00;;;17.30;99.90;;;;;;4129179;28;20045;-81
2022/09/13 05:36:21;;;;;;;3.97;1.20;;;17.30;99.90;;;;;;4130613;28;20073;-82
2022/09/13 05:38:22;;;;;;;6.25;1.73;;;17.30;99.90;;;;;;4114051;28;20849;-81
2022/09/13 05:40:23;;;;;;;4.07;0.90;;;17.30;99.90;;;;;;4131329;28;20042;-81
2022/09/13 05:42:24;;;;;;;1.85;0.63;;;17.30;99.90;;;;;;4131335;28;20046;-81
2022/09/13 05:44:24;;;;;;;5.50;1.77;;;17.30;99.90;;;;;;4131088;28;20046;-81
2022/09/13 05:46:25;;;;;;;4.00;0.73;;;17.30;99.90;;;;;;4116652;28;20129;-81
2022/09/13 05:48:26;;;;;;;8.18;1.08;;;17.30;99.90;;;;;;4133043;28;20482;-81
2022/09/13 05:50:27;;;;;;;6.25;1.17;;;17.30;99.90;;;;;;4134303;28;20046;-81
2022/09/13 05:52:27;;;;;;;4.80;1.35;;;17.30;99.90;;;;;;4117214;28;20552;-81
2022/09/13 05:54:29;;;;;;;5.18;1.30;;;17.40;99.90;;;;;;4116846;28;20043;-81
2022/09/13 05:56:31;;;;;;;5.20;1.17;;;17.40;99.90;;;;;;4134674;28;20078;-81
2022/09/13 05:58:33;;;;;;;4.47;0.93;;;17.40;99.90;;;;;;4132994;28;20050;-81
2022/09/13 06:00:34;;;;;;;4.50;0.90;;;17.40;99.90;;;;;;4134710;28;20069;-81
2022/09/13 06:02:35;;;;;;;6.00;1.00;;;17.40;99.90;;;;;;4134106;28;20057;-81
2022/09/13 06:04:35;;;;;;;6.35;1.08;;;17.50;99.90;;;;;;4132803;28;20053;-81
2022/09/13 06:06:36;;;;;;;7.25;1.20;;;17.40;99.90;;;;;;4134017;28;20050;-81
2022/09/13 06:08:37;;;;;;;5.57;0.80;;;17.50;99.90;;;;;;4133750;28;20046;-81
2022/09/13 06:10:37;;;;;;;8.00;1.48;;;17.50;99.90;;;;;;4133965;28;20104;-81
2022/09/13 06:12:38;;;;;;;5.32;1.00;;;17.50;99.90;;;;;;4116031;28;20046;-81
2022/09/13 06:14:39;;;;;;;5.75;0.93;;;17.50;99.90;;;;;;4133548;28;20057;-81
2022/09/13 06:16:39;;;;;;;5.93;0.98;;;17.50;99.90;;;;;;4133586;28;20073;-81
2022/09/13 06:18:40;;;;;;;8.25;2.20;;;17.60;99.90;;;;;;4133598;28;20050;-81
2022/09/13 06:20:41;;;;;;;7.13;1.23;;;17.50;99.90;;;;;;4133368;28;20050;-82
2022/09/13 06:22:41;;;;;;;10.15;1.38;;;17.50;99.90;;;;;;4116291;28;20432;-81
2022/09/13 06:24:42;;;;;;;4.35;1.33;;;17.60;99.90;;;;;;4133382;28;20047;-81
2022/09/13 06:26:43;;;;;;;8.07;1.27;;;17.60;99.90;;;;;;4133047;28;20043;-81
2022/09/13 06:28:49;;;;;;;5.50;1.10;;;17.60;99.90;;;;;;4133198;28;20050;-81
2022/09/13 06:30:50;;;;;;;5.00;1.63;;;17.60;99.90;;;;;;4133554;28;20082;-81
2022/09/13 06:32:50;;;;;;;4.57;1.10;;;17.60;99.90;;;;;;4133196;28;20065;-81
2022/09/13 06:34:51;;;;;;;10.98;1.35;;;17.70;99.90;;;;;;4133329;28;20551;-81
2022/09/13 06:36:52;;;;;;;8.55;1.00;;;17.70;99.90;;;;;;4132918;28;20057;-81
2022/09/13 06:38:52;;;;;;;6.43;1.15;;;17.80;99.90;;;;;;4099791;29;20051;-81
2022/09/13 06:41:22;;;;;;;6.28;1.30;;;17.80;99.90;;;;;;4132977;28;20124;-80
2022/09/13 06:43:22;;;;;;;3.20;0.77;;;17.80;99.90;;;;;;4132147;28;20092;-81
2022/09/13 06:45:23;;;;;;;8.50;1.05;;;17.90;99.90;;;;;;4132335;28;20050;-80
2022/09/13 06:47:24;;;;;;;4.95;0.88;;;17.90;99.90;;;;;;4132859;28;20050;-81
2022/09/13 06:49:25;;;;;;;5.47;1.20;;;17.90;99.90;;;;;;4133127;28;20046;-82
2022/09/13 06:51:26;;;;;;;9.50;1.90;;;18.00;99.90;;;;;;4131640;28;20050;-81
2022/09/13 06:53:30;;;;;;;10.45;1.88;;;18.10;99.90;;;;;;4132747;28;20082;-81
2022/09/13 06:55:34;;;;;;;3.90;1.17;;;18.10;99.90;;;;;;4132970;28;20045;-82
2022/09/13 06:57:34;;;;;;;3.22;0.75;;;18.20;99.90;;;;;;4131675;28;20058;-81
2022/09/13 06:59:35;;;;;;;2.65;0.60;;;18.20;99.90;;;;;;4132982;28;20042;-82
2022/09/13 07:01:38;;;;;;;7.45;1.40;;;18.30;99.90;;;;;;4132945;28;20215;-81
2022/09/13 07:03:44;;;;;;;6.75;0.70;;;18.40;99.90;;;;;;4132717;28;20050;-81
2022/09/13 07:05:44;;;;;;;5.45;0.65;;;18.40;99.90;;;;;;4132954;28;20042;-81
2022/09/13 07:07:46;;;;;;;8.50;0.75;;;18.50;99.90;;;;;;4132419;28;20097;-81
2022/09/13 07:09:47;;;;;;;10.23;0.85;;;18.60;99.90;;;;;;4132808;28;20069;-81
2022/09/13 07:11:53;;;;;;;4.57;0.68;;;18.60;99.90;;;;;;4132786;28;20050;-81
2022/09/13 07:13:56;;;;;;;5.57;1.02;;;18.90;99.90;;;;;;4132721;28;20081;-81
2022/09/13 07:16:01;;;;;;;4.80;0.70;;;18.90;99.90;;;;;;4132098;28;20085;-81
2022/09/13 07:18:02;;;;;;;4.13;0.68;;;19.00;99.90;;;;;;4115623;28;20523;-81
2022/09/13 07:20:05;;;;;;;2.63;0.93;;;19.00;99.90;;;;;;4132466;28;20049;-81
2022/09/13 07:22:06;;;;;;;8.13;1.73;;;19.00;99.90;;;;;;4132497;28;20219;-81
2022/09/13 07:24:07;;;;;;;3.65;0.55;;;18.90;99.90;;;;;;4132321;28;20439;-81
2022/09/13 07:26:09;;;;;;;4.05;0.30;;;18.90;99.90;;;;;;4132467;28;20108;-81
2022/09/13 07:28:10;;;;;;;2.30;0.50;;;18.80;99.90;;;;;;4132009;28;20046;-80
2022/09/13 07:30:10;;;;;;;7.10;0.60;;;18.70;99.90;;;;;;4132478;28;20108;-81
2022/09/13 07:32:11;;;;;;;6.07;0.68;;;18.70;99.90;;;;;;4132300;28;20046;-82
2022/09/13 07:34:17;;;;;;;3.10;0.40;;;18.80;99.90;;;;;;4132322;28;20049;-81
2022/09/13 07:36:18;;;;;;;3.63;0.43;;;18.90;99.90;;;;;;4131888;28;20507;-81
2022/09/13 07:38:19;;;;;;;4.47;0.50;;;19.10;99.90;;;;;;4132240;28;20081;-81
2022/09/13 07:40:20;;;;;;;6.20;0.85;;;19.20;99.90;;;;;;4132347;28;20459;-81
2022/09/13 07:42:20;;;;;;;4.28;0.52;;;19.30;99.90;;;;;;4132239;28;20046;-82
2022/09/13 07:44:21;;;;;;;3.58;1.33;;;19.40;99.90;;;;;;4132374;28;20038;-82
2022/09/13 07:46:24;;;;;;;6.72;0.55;;;19.50;99.90;;;;;;4114398;28;20054;-81
2022/09/13 07:48:27;;;;;;;1.75;0.43;;;19.70;99.90;;;;;;4131889;28;20042;-82
2022/09/13 07:50:27;;;;;;;2.15;0.40;;;19.80;99.90;;;;;;4115043;28;20047;-82
2022/09/13 07:52:28;;;;;;;8.43;1.38;;;19.90;99.90;;;;;;4132009;28;20071;-82
2022/09/13 07:54:29;;;;;;;8.15;0.80;;;19.90;99.90;;;;;;4114890;28;20054;-81
2022/09/13 07:56:35;;;;;;;5.68;0.55;;;19.90;99.90;;;;;;4132111;28;20432;-82
2022/09/13 07:58:37;;;;;;;7.82;0.70;;;19.90;99.90;;;;;;4132041;28;20113;-82
2022/09/13 08:00:38;;;;;;;14.80;1.00;;;19.90;99.90;;;;;;4131697;28;20050;-82
2022/09/13 08:02:38;;;;;;;10.18;0.60;;;19.80;99.90;;;;;;4132255;28;20057;-81
2022/09/13 08:04:39;;;;;;;3.83;0.38;;;19.80;99.90;;;;;;4131687;28;20129;-81
2022/09/13 08:06:42;;;;;;;6.90;0.65;;;19.90;99.90;;;;;;4131977;28;20046;-81
2022/09/13 08:08:42;;;;;;;4.72;0.85;;;20.10;99.90;;;;;;4130707;28;20043;-82
2022/09/13 08:10:43;;;;;;;3.03;0.40;;;20.30;99.90;;;;;;4132121;28;20077;-82
2022/09/13 08:12:44;;;;;;;5.38;1.30;;;20.40;99.90;;;;;;4114358;28;20054;-82
2022/09/13 08:14:44;;;;;;;6.05;0.80;;;20.40;99.90;;;;;;4131883;28;20050;-81
2022/09/13 08:16:45;;;;;;;5.18;0.75;;;20.30;99.90;;;;;;4114379;28;20057;-81
2022/09/13 08:18:54;;;;;;;4.20;0.65;;;20.10;99.90;;;;;;4114677;28;20080;-79
2022/09/13 08:20:59;;;;;;;4.25;0.43;;;20.20;99.90;;;;;;4131912;28;20050;-81
2022/09/13 08:22:59;;;;;;;4.63;0.45;;;20.70;99.90;;;;;;4131181;28;20057;-82
2022/09/13 08:25:00;;;;;;;3.95;0.38;;;21.20;99.30;;;;;;4131757;28;20050;-81
2022/09/13 08:27:01;;;;;;;7.97;0.90;;;21.60;98.10;;;;;;4131690;28;20050;-82
2022/09/13 08:29:04;;;;;;;4.10;0.60;;;22.20;97.40;;;;;;4131711;28;20050;-82
2022/09/13 08:31:08;;;;;;;3.25;0.93;;;22.50;96.10;;;;;;4131461;28;20042;-81
2022/09/13 08:33:10;;;;;;;4.10;0.75;;;22.40;95.50;;;;;;4131053;28;20050;-81
2022/09/13 08:35:11;;;;;;;2.30;0.38;;;22.80;94.80;;;;;;4114115;28;20042;-81
2022/09/13 08:37:11;;;;;;;2.40;0.47;;;23.50;94.10;;;;;;4114394;28;20111;-81
2022/09/13 08:39:12;;;;;;;4.35;0.30;;;24.00;93.10;;;;;;4131621;28;20050;-82
2022/09/13 08:41:28;;;;;;;1.55;0.50;;;24.50;92.10;;;;;;4131511;28;20125;-81
2022/09/13 08:43:56;;;;;;;3.75;0.60;;;24.90;90.10;;;;;;4131465;28;20504;-82
2022/09/13 08:46:28;;;;;;;4.28;0.50;;;25.20;89.90;;;;;;4130523;28;20500;-82
2022/09/13 08:48:39;;;;;;;4.00;0.65;;;25.50;89.70;;;;;;4131554;28;20049;-82
2022/09/13 08:50:42;;;;;;;5.18;0.68;;;25.90;88.90;;;;;;4131132;28;20172;-82
2022/09/13 08:52:48;;;;;;;1.55;0.50;;;25.50;88.50;;;;;;4131341;28;20045;-81
2022/09/13 08:54:50;;;;;;;4.82;0.52;;;24.70;88.20;;;;;;4131415;28;20082;-81
2022/09/13 08:57:35;;;;;;;6.20;0.57;;;24.50;89.30;;;;;;4113870;28;20056;-81
2022/09/13 09:00:10;;;;;;;1.77;0.50;;;24.90;86.20;;;;;;4112482;28;20043;-82
2022/09/13 09:02:39;;;;;;;1.98;0.20;;;25.50;85.80;;;;;;4131341;28;20078;-82
2022/09/13 09:05:00;;;;;;;4.45;0.68;;;26.20;84.30;;;;;;4128334;28;20046;-81
2022/09/13 09:07:14;;;;;;;7.63;0.60;;;26.00;83.60;;;;;;4130865;28;20066;-81
2022/09/13 09:09:18;;;;;;;4.65;0.75;;;25.70;81.80;;;;;;4131453;28;20058;-82
2022/09/13 09:11:40;;;;;;;4.38;0.73;;;25.10;84.10;;;;;;4131590;28;20046;-81
2022/09/13 09:13:51;;;;;;;3.35;0.70;;;24.50;84.20;;;;;;4114177;28;20050;-81
2022/09/13 09:15:57;;;;;;;6.95;0.60;;;24.00;85.00;;;;;;4130930;28;20197;-81
2022/09/13 09:18:22;;;;;;;2.83;0.60;;;23.90;87.10;;;;;;4131461;28;20492;-81
2022/09/13 09:20:31;;;;;;;3.80;0.35;;;24.60;84.90;;;;;;4132940;28;20069;-81
2022/09/13 09:22:34;;;;;;;3.22;0.60;;;25.30;83.90;;;;;;4134709;28;20571;-81
2022/09/13 09:24:37;;;;;;;3.55;0.52;;;25.10;82.10;;;;;;4117500;28;20085;-82
2022/09/13 09:26:38;;;;;;;4.50;0.98;;;25.40;81.70;;;;;;4134505;28;20516;-81
2022/09/13 09:28:39;;;;;;;9.75;0.80;;;26.10;80.80;;;;;;4135108;28;20050;-81
2022/09/13 09:31:11;;;;;;;2.63;0.70;;;26.60;80.20;;;;;;4134968;28;20069;-81
2022/09/13 09:33:35;;;;;;;5.13;0.30;;;25.90;75.50;;;;;;4135182;28;20548;-81
2022/09/13 09:35:51;;;;;;;2.58;0.40;;;25.20;77.30;;;;;;4136299;28;20057;-81
2022/09/13 09:38:31;;;;;;;4.78;0.60;;;25.20;80.90;;;;;;4135950;28;20120;-81
2022/09/13 09:40:37;;;;;;;4.25;0.30;;;25.50;78.30;;;;;;4132084;28;20061;-82
2022/09/13 09:42:43;;;;;;;2.25;0.45;;;25.30;79.70;;;;;;4136105;28;20555;-81
2022/09/13 09:44:57;;;;;;;4.53;0.80;;;24.80;79.80;;;;;;4118714;28;20050;-81
2022/09/13 09:47:13;;;;;;;5.28;0.50;;;24.70;80.70;;;;;;4135217;28;20050;-82
2022/09/13 09:52:01;;;;;;;2.88;0.55;;;25.80;80.90;;;;;;4135674;28;20054;-82
2022/09/13 09:54:04;;;;;;;2.40;0.50;;;25.80;80.30;;;;;;4135352;28;20092;-82
2022/09/13 09:56:25;;;;;;;5.70;0.75;;;25.40;79.40;;;;;;4135648;28;20049;-81
2022/09/13 09:58:40;;;;;;;4.38;0.50;;;25.40;78.50;;;;;;4135671;28;20053;-81
2022/09/13 10:01:21;;;;;;;5.95;0.60;;;25.00;76.90;;;;;;4133957;28;20046;-81
2022/09/13 10:03:30;;;;;;;7.63;0.50;;;24.70;76.90;;;;;;4130622;28;20090;-80
2022/09/13 10:05:33;;;;;;;2.42;0.77;;;24.50;80.50;;;;;;4133931;28;20524;-81
2022/09/13 10:07:34;;;;;;;4.00;0.63;;;24.40;80.60;;;;;;4133934;28;20548;-80
2022/09/13 10:09:37;;;;;;;6.45;0.70;;;24.70;80.60;;;;;;4133737;28;20092;-80
2022/09/13 10:11:50;;;;;;;4.28;0.70;;;25.00;79.80;;;;;;4133989;28;20049;-80
2022/09/13 10:14:02;;;;;;;9.95;0.80;;;25.50;78.60;;;;;;4133329;28;20069;-82
2022/09/13 10:16:06;;;;;;;5.07;0.52;;;26.00;77.80;;;;;;4134069;28;20162;-81
2022/09/13 10:18:14;;;;;;;0.88;0.50;;;26.30;78.30;;;;;;4133523;28;20081;-81
2022/09/13 10:20:20;;;;;;;5.05;0.50;;;26.80;76.10;;;;;;4133601;28;20053;-81
2022/09/13 10:22:21;;;;;;;6.30;0.73;;;27.20;76.80;;;;;;4133634;28;20096;-81
2022/09/13 10:24:23;;;;;;;2.60;0.47;;;27.10;76.00;;;;;;4133721;28;20050;-81
2022/09/13 10:26:25;;;;;;;3.92;1.15;;;27.10;75.20;;;;;;4115986;28;20066;-81
2022/09/13 10:28:27;;;;;;;3.65;0.50;;;27.10;75.00;;;;;;4132931;28;20054;-81
2022/09/13 10:30:39;;;;;;;2.75;0.50;;;27.30;75.20;;;;;;4133235;28;20591;-81
2022/09/13 10:32:40;;;;;;;4.00;0.60;;;27.70;74.30;;;;;;4132191;28;20096;-81
2022/09/13 10:34:44;;;;;;;2.63;0.43;;;27.90;72.70;;;;;;4115858;28;20449;-81
2022/09/13 10:36:53;;;;;;;7.95;0.52;;;28.00;71.00;;;;;;4133303;28;20046;-81
2022/09/13 10:39:20;;;;;;;3.28;0.40;;;28.00;69.10;;;;;;4115759;28;20125;-80
2022/09/13 10:41:23;;;;;;;2.20;0.40;;;27.70;67.70;;;;;;4132989;28;20121;-80
2022/09/13 10:43:28;;;;;;;2.53;0.50;;;27.40;70.00;;;;;;4133484;28;20049;-81
2022/09/13 10:45:33;;;;;;;3.35;0.50;;;27.40;70.30;;;;;;4115541;28;20054;-80
2022/09/13 10:47:46;;;;;;;2.60;1.25;;;27.30;70.60;;;;;;4133167;28;20050;-81
2022/09/13 10:49:55;;;;;;;5.03;0.80;;;27.60;67.10;;;;;;4133410;28;20042;-80
2022/09/13 10:51:56;;;;;;;4.03;0.70;;;27.60;69.20;;;;;;4132387;28;20057;-81
2022/09/13 10:54:21;;;;;;;2.92;0.30;;;27.70;69.50;;;;;;4133062;28;20476;-80
2022/09/13 10:56:25;;;;;;;4.90;0.60;;;27.80;67.00;;;;;;4132726;28;20046;-80
2022/09/13 10:58:29;;;;;;;2.25;0.60;;;27.50;66.60;;;;;;4132900;28;20100;-81
2022/09/13 11:00:52;;;;;;;3.95;0.40;;;27.10;66.50;;;;;;4132971;28;20083;-80